createdAt,value
2023-02-16T00:00:29.690Z,83.80
2023-02-16T00:03:22.801Z,75.60
2023-02-16T00:05:53.894Z,74.10
2023-02-16T00:08:24.632Z,73.10
2023-02-16T00:11:11.647Z,77.00
2023-02-16T00:13:48.213Z,81.50
2023-02-16T00:16:25.065Z,77.90
2023-02-16T00:18:53.959Z,74.00
2023-02-16T00:21:23.280Z,76.80
2023-02-16T00:23:51.606Z,77.30
2023-02-16T00:26:23.038Z,81.90
2023-02-16T00:28:59.094Z,81.40
2023-02-16T00:31:32.334Z,82.70
2023-02-16T00:34:20.805Z,74.50
2023-02-16T00:36:49.070Z,84.20
2023-02-16T00:39:18.354Z,81.10
2023-02-16T00:41:54.069Z,79.40
2023-02-16T00:44:34.756Z,77.60
2023-02-16T00:47:15.292Z,83.80
2023-02-16T00:49:43.564Z,84.90
2023-02-16T00:52:23.964Z,85.70
2023-02-16T00:54:52.414Z,85.90
2023-02-16T00:57:24.214Z,92.50
2023-02-16T01:00:02.400Z,83.20
2023-02-16T01:02:30.528Z,88.90
2023-02-16T01:04:59.144Z,91.10
2023-02-16T01:07:46.243Z,90.20
2023-02-16T01:10:37.518Z,94.50
2023-02-16T01:13:06.456Z,105.60
2023-02-16T01:15:35.512Z,96.40
2023-02-16T01:18:04.082Z,96.90
2023-02-16T01:20:33.054Z,97.30
2023-02-16T01:23:01.276Z,93.30
2023-02-16T01:25:30.050Z,100.80
2023-02-16T01:27:59.439Z,94.40
2023-02-16T01:30:28.321Z,97.90
2023-02-16T01:32:56.960Z,104.00
2023-02-16T01:35:31.294Z,93.40
2023-02-16T01:38:00.205Z,92.40
2023-02-16T01:40:41.540Z,100.30
2023-02-16T01:43:25.136Z,99.00
2023-02-16T01:46:11.885Z,105.70
2023-02-16T01:48:41.226Z,105.50
2023-02-16T01:51:24.608Z,93.10
2023-02-16T01:54:11.127Z,96.90
2023-02-16T01:56:48.424Z,97.70
2023-02-16T01:59:44.714Z,112.50
2023-02-16T02:02:20.714Z,95.90
2023-02-16T02:05:17.801Z,102.30
2023-02-16T02:08:31.025Z,101.20
2023-02-16T02:11:03.342Z,110.50
2023-02-16T02:13:57.072Z,104.50
2023-02-16T02:16:27.930Z,126.10
2023-02-16T02:18:56.855Z,102.50
2023-02-16T02:22:23.024Z,108.50
2023-02-16T02:25:13.216Z,117.20
2023-02-16T02:28:03.212Z,100.30
2023-02-16T02:31:00.862Z,100.60
2023-02-16T02:33:44.240Z,111.60
2023-02-16T02:36:55.532Z,144.40
2023-02-16T02:39:44.783Z,116.90
2023-02-16T02:42:25.004Z,96.90
2023-02-16T02:45:03.174Z,112.10
2023-02-16T02:47:39.780Z,99.50
2023-02-16T02:51:08.151Z,121.20
2023-02-16T02:53:48.427Z,131.10
2023-02-16T02:56:36.917Z,119.80
2023-02-16T02:59:28.212Z,104.30
2023-02-16T03:01:59.836Z,118.00
2023-02-16T03:04:31.741Z,143.10
2023-02-16T03:07:01.783Z,134.70
2023-02-16T03:09:30.438Z,165.20
2023-02-16T03:12:19.417Z,117.20
2023-02-16T03:15:00.847Z,115.50
2023-02-16T03:17:54.956Z,88.90
2023-02-16T03:20:42.429Z,95.40
2023-02-16T03:23:30.769Z,75.20
2023-02-16T03:26:17.501Z,113.20
2023-02-16T03:29:05.786Z,102.40
2023-02-16T03:31:38.995Z,94.20
2023-02-16T03:34:08.849Z,98.40
2023-02-16T03:36:40.448Z,84.60
2023-02-16T03:39:10.650Z,98.40
2023-02-16T03:41:42.901Z,106.10
2023-02-16T03:44:11.385Z,78.80
2023-02-16T03:46:39.653Z,95.00
2023-02-16T03:49:08.178Z,97.10
2023-02-16T03:51:36.791Z,81.20
2023-02-16T03:54:05.005Z,86.70
2023-02-16T03:56:33.563Z,83.60
2023-02-16T03:59:01.824Z,83.60
2023-02-16T04:01:30.634Z,85.50
2023-02-16T04:03:59.152Z,88.20
2023-02-16T04:06:27.732Z,88.40
2023-02-16T04:08:56.708Z,82.50
2023-02-16T04:11:48.482Z,79.80
2023-02-16T04:14:16.951Z,80.80
2023-02-16T04:16:47.940Z,76.60
2023-02-16T04:19:16.190Z,82.40
2023-02-16T04:21:44.998Z,86.70
2023-02-16T04:24:13.129Z,85.30
2023-02-16T04:26:41.462Z,90.90
2023-02-16T04:29:10.021Z,105.10
2023-02-16T04:31:38.969Z,107.70
2023-02-16T04:34:07.438Z,106.50
2023-02-16T04:36:35.790Z,105.30
2023-02-16T04:39:04.816Z,110.30
2023-02-16T04:41:33.125Z,113.50
2023-02-16T04:44:01.694Z,95.90
2023-02-16T04:46:30.831Z,95.90
2023-02-16T04:48:59.050Z,96.70
2023-02-16T04:51:27.535Z,91.10
2023-02-16T04:53:55.842Z,82.80
2023-02-16T04:56:23.982Z,76.70
2023-02-16T04:58:52.197Z,85.80
2023-02-16T05:01:22.787Z,87.40
2023-02-16T05:03:51.706Z,90.90
2023-02-16T05:06:21.129Z,82.90
2023-02-16T05:08:49.748Z,80.10
2023-02-16T05:11:36.590Z,85.40
2023-02-16T05:14:23.969Z,93.30
2023-02-16T05:16:52.378Z,93.40
2023-02-16T05:19:20.982Z,91.20
2023-02-16T05:21:49.330Z,87.00
2023-02-16T05:24:17.595Z,90.40
2023-02-16T05:26:48.504Z,95.50
2023-02-16T05:29:16.986Z,98.80
2023-02-16T05:31:45.473Z,88.80
2023-02-16T05:34:14.171Z,93.40
2023-02-16T05:36:42.989Z,92.00
2023-02-16T05:39:11.622Z,92.30
2023-02-16T05:41:39.766Z,92.00
2023-02-16T05:44:08.800Z,87.60
2023-02-16T05:46:39.382Z,91.90
2023-02-16T05:49:08.945Z,88.80
2023-02-16T05:51:38.070Z,86.70
2023-02-16T05:54:07.158Z,88.00
2023-02-16T05:56:35.809Z,88.00
2023-02-16T05:59:04.328Z,92.20
2023-02-16T06:01:32.376Z,93.90
2023-02-16T06:04:00.909Z,94.30
2023-02-16T06:06:29.333Z,85.60
2023-02-16T06:08:57.753Z,83.90
2023-02-16T06:11:38.057Z,91.20
2023-02-16T06:14:12.450Z,90.30
2023-02-16T06:16:47.421Z,89.10
2023-02-16T06:19:18.770Z,84.30
2023-02-16T06:21:47.673Z,86.90
2023-02-16T06:24:16.085Z,90.50
2023-02-16T06:26:44.489Z,88.00
2023-02-16T06:29:12.852Z,88.00
2023-02-16T06:31:41.805Z,87.60
2023-02-16T06:34:10.145Z,89.40
2023-02-16T06:36:44.518Z,91.10
2023-02-16T06:39:12.967Z,97.40
2023-02-16T06:41:41.661Z,99.30
2023-02-16T06:44:13.031Z,90.70
2023-02-16T06:46:45.034Z,85.70
2023-02-16T06:49:17.138Z,93.30
2023-02-16T06:51:46.746Z,101.60
2023-02-16T06:54:15.929Z,94.00
2023-02-16T06:56:45.180Z,96.10
2023-02-16T06:59:13.659Z,95.10
2023-02-16T07:01:44.163Z,96.00
2023-02-16T07:04:14.001Z,92.40
2023-02-16T07:06:42.819Z,93.10
2023-02-16T07:09:12.804Z,98.40
2023-02-16T07:11:41.499Z,88.70
2023-02-16T07:14:10.390Z,89.70
2023-02-16T07:16:38.762Z,93.20
2023-02-16T07:19:07.685Z,91.20
2023-02-16T07:21:35.925Z,90.40
2023-02-16T07:24:04.726Z,81.80
2023-02-16T07:26:34.132Z,77.20
2023-02-16T07:29:02.604Z,87.40
2023-02-16T07:31:31.719Z,84.70
2023-02-16T07:34:00.154Z,85.00
2023-02-16T07:36:28.824Z,83.10
2023-02-16T07:38:57.710Z,81.80
2023-02-16T07:41:26.429Z,86.70
2023-02-16T07:43:54.963Z,85.60
2023-02-16T07:46:23.606Z,84.40
2023-02-16T07:48:52.304Z,87.70
2023-02-16T07:51:25.872Z,83.50
2023-02-16T07:53:55.180Z,86.60
2023-02-16T07:56:31.852Z,86.90
2023-02-16T07:59:02.430Z,81.10
2023-02-16T08:01:31.823Z,79.90
2023-02-16T08:04:00.080Z,75.10
2023-02-16T08:06:28.827Z,81.30
2023-02-16T08:08:57.435Z,82.80
2023-02-16T08:11:26.083Z,72.10
2023-02-16T08:13:54.668Z,76.20
2023-02-16T08:16:25.552Z,78.60
2023-02-16T08:18:57.072Z,81.30
2023-02-16T08:21:29.388Z,79.00
2023-02-16T08:24:05.179Z,74.00
2023-02-16T08:26:40.038Z,71.10
2023-02-16T08:29:15.719Z,73.60
2023-02-16T08:31:46.556Z,71.60
2023-02-16T08:34:17.962Z,67.90
2023-02-16T08:36:48.132Z,69.00
2023-02-16T08:39:19.193Z,67.60
2023-02-16T08:41:49.569Z,70.10
2023-02-16T08:44:20.131Z,72.60
2023-02-16T08:46:50.890Z,69.20
2023-02-16T08:49:23.015Z,67.80
2023-02-16T08:51:54.986Z,73.20
2023-02-16T08:54:28.323Z,72.40
2023-02-16T08:56:59.491Z,72.10
2023-02-16T08:59:29.061Z,72.40
2023-02-16T09:02:01.655Z,70.40
2023-02-16T09:04:29.962Z,70.90
2023-02-16T09:07:02.087Z,73.30
2023-02-16T09:09:30.960Z,67.20
2023-02-16T09:11:59.882Z,65.20
2023-02-16T09:14:28.256Z,59.80
2023-02-16T09:16:56.513Z,65.50
2023-02-16T09:19:26.249Z,64.60
2023-02-16T09:21:56.760Z,63.10
2023-02-16T09:24:25.453Z,62.10
2023-02-16T09:26:55.412Z,61.60
2023-02-16T09:29:24.265Z,58.10
2023-02-16T09:31:55.087Z,62.00
2023-02-16T09:34:23.815Z,60.40
2023-02-16T09:36:52.906Z,61.90
2023-02-16T09:39:21.823Z,60.30
2023-02-16T09:41:56.198Z,64.40
2023-02-16T09:44:42.562Z,61.40
2023-02-16T09:47:32.084Z,66.70
2023-02-16T09:50:17.176Z,58.30
2023-02-16T09:53:10.136Z,56.20
2023-02-16T09:56:03.993Z,57.40
2023-02-16T09:58:58.044Z,54.80
2023-02-16T10:02:00.134Z,57.90
2023-02-16T10:04:39.773Z,57.20
2023-02-16T10:07:36.321Z,56.40
2023-02-16T10:10:06.977Z,55.00
2023-02-16T10:12:44.185Z,59.60
2023-02-16T10:15:25.887Z,54.60
2023-02-16T10:18:20.961Z,55.40
2023-02-16T10:20:54.276Z,54.00
2023-02-16T10:23:54.557Z,55.10
2023-02-16T10:26:32.390Z,57.10
2023-02-16T10:29:07.765Z,53.20
2023-02-16T10:32:05.190Z,55.10
2023-02-16T10:34:50.303Z,56.10
2023-02-16T10:37:33.526Z,58.00
2023-02-16T10:40:17.280Z,56.40
2023-02-16T10:42:53.868Z,53.60
2023-02-16T10:45:52.627Z,49.70
2023-02-16T10:48:23.344Z,55.00
2023-02-16T10:51:02.977Z,53.60
2023-02-16T10:53:31.975Z,53.80
2023-02-16T10:56:00.973Z,51.90
2023-02-16T10:58:39.529Z,50.30
2023-02-16T11:01:13.266Z,48.30
2023-02-16T11:03:59.956Z,54.00
2023-02-16T11:06:29.381Z,55.40
2023-02-16T11:09:01.343Z,53.00
2023-02-16T11:11:42.512Z,54.10
2023-02-16T11:14:29.143Z,49.20
2023-02-16T11:17:16.974Z,50.20
2023-02-16T11:20:01.711Z,50.70
2023-02-16T11:22:32.610Z,53.70
2023-02-16T11:25:30.932Z,55.60
2023-02-16T11:28:09.768Z,53.20
2023-02-16T11:30:41.984Z,51.70
2023-02-16T11:33:27.337Z,49.80
2023-02-16T11:35:56.280Z,47.70
2023-02-16T11:38:34.432Z,49.10
2023-02-16T11:41:06.703Z,48.60
2023-02-16T11:43:42.225Z,46.50
2023-02-16T11:46:18.013Z,48.20
2023-02-16T11:48:46.839Z,44.90
2023-02-16T11:51:34.109Z,50.60
2023-02-16T11:54:06.594Z,45.90
2023-02-16T11:56:36.489Z,47.10
2023-02-16T11:59:19.577Z,44.30
2023-02-16T12:02:19.956Z,43.20
2023-02-16T12:05:08.360Z,43.70
2023-02-16T12:08:14.829Z,42.00
2023-02-16T12:11:06.895Z,42.90
2023-02-16T12:13:46.342Z,40.40
2023-02-16T12:16:37.424Z,40.70
2023-02-16T12:19:30.026Z,39.70
2023-02-16T12:22:08.678Z,42.00
2023-02-16T12:24:55.926Z,43.30
2023-02-16T12:28:10.196Z,38.90
2023-02-16T12:30:53.376Z,40.50
2023-02-16T12:33:56.587Z,40.40
2023-02-16T12:37:01.586Z,41.00
2023-02-16T12:39:54.720Z,47.20
2023-02-16T12:42:51.724Z,40.00
2023-02-16T12:45:25.361Z,41.30
2023-02-16T12:48:19.411Z,43.00
2023-02-16T12:50:52.504Z,39.20
2023-02-16T12:53:30.788Z,39.90
2023-02-16T12:56:20.295Z,41.50
2023-02-16T12:58:56.102Z,39.20
2023-02-16T13:01:30.757Z,40.30
2023-02-16T13:04:14.693Z,41.40
2023-02-16T13:07:18.223Z,40.70
2023-02-16T13:10:21.694Z,41.80
2023-02-16T13:13:02.885Z,40.40
2023-02-16T13:15:37.363Z,41.60
2023-02-16T13:18:23.178Z,43.50
2023-02-16T13:21:00.704Z,44.10
2023-02-16T13:23:39.093Z,44.00
2023-02-16T13:26:32.689Z,43.80
2023-02-16T13:29:23.259Z,41.50
2023-02-16T13:32:17.452Z,43.80
2023-02-16T13:35:22.259Z,42.40
2023-02-16T13:38:02.523Z,42.10
2023-02-16T13:41:18.007Z,42.10
2023-02-16T13:44:10.650Z,44.60
2023-02-16T13:46:54.232Z,41.20
2023-02-16T13:49:40.037Z,41.70
2023-02-16T13:52:12.206Z,44.30
2023-02-16T13:54:44.408Z,44.40
2023-02-16T13:57:14.520Z,44.20
2023-02-16T13:59:58.245Z,46.70
2023-02-16T14:02:54.949Z,46.00
2023-02-16T14:05:28.158Z,45.90
2023-02-16T14:08:12.869Z,44.90
2023-02-16T14:11:02.083Z,43.60
2023-02-16T14:13:45.550Z,45.90
2023-02-16T14:16:22.790Z,43.60
2023-02-16T14:19:00.364Z,43.50
2023-02-16T14:21:41.116Z,45.20
2023-02-16T14:24:29.318Z,45.60
2023-02-16T14:27:04.521Z,46.30
2023-02-16T14:29:36.604Z,52.40
2023-02-16T14:32:28.653Z,50.50
2023-02-16T14:35:09.268Z,54.10
2023-02-16T14:37:44.679Z,48.30
2023-02-16T14:40:21.960Z,52.80
2023-02-16T14:42:57.434Z,50.20
2023-02-16T14:46:11.635Z,49.30
2023-02-16T14:49:05.649Z,53.20
2023-02-16T14:51:36.888Z,48.90
2023-02-16T14:54:42.788Z,47.70
2023-02-16T14:57:23.942Z,50.40
2023-02-16T15:00:01.264Z,49.70
2023-02-16T15:02:38.243Z,52.40
2023-02-16T15:05:18.168Z,54.30
2023-02-16T15:07:50.647Z,50.60
2023-02-16T15:10:28.364Z,54.20
2023-02-16T15:12:57.748Z,49.50
2023-02-16T15:15:49.009Z,52.30
2023-02-16T15:18:24.184Z,51.80
2023-02-16T15:20:55.018Z,57.10
2023-02-16T15:23:34.328Z,54.80
2023-02-16T15:26:09.565Z,54.60
2023-02-16T15:28:41.249Z,56.10
2023-02-16T15:31:24.055Z,56.30
2023-02-16T15:33:58.929Z,57.30
2023-02-16T15:36:35.617Z,56.90
2023-02-16T15:39:37.897Z,57.80
2023-02-16T15:42:21.632Z,57.90
2023-02-16T15:44:50.544Z,58.90
2023-02-16T15:47:25.084Z,63.50
2023-02-16T15:49:54.423Z,66.90
2023-02-16T15:52:36.253Z,63.20
2023-02-16T15:55:10.033Z,68.80
2023-02-16T15:57:41.393Z,60.30
2023-02-16T16:00:22.155Z,62.90
2023-02-16T16:02:53.812Z,58.00
2023-02-16T16:05:36.677Z,55.40
2023-02-16T16:08:11.725Z,59.10
2023-02-16T16:10:42.299Z,59.40
2023-02-16T16:13:24.653Z,66.50
2023-02-16T16:16:00.159Z,64.70
2023-02-16T16:18:52.737Z,60.20
2023-02-16T16:21:38.438Z,61.20
2023-02-16T16:24:09.572Z,56.90
2023-02-16T16:26:59.112Z,55.90
2023-02-16T16:29:45.488Z,61.00
2023-02-16T16:32:30.609Z,56.40
2023-02-16T16:35:00.993Z,57.10
2023-02-16T16:37:33.560Z,55.60
2023-02-16T16:40:04.900Z,58.50
2023-02-16T16:42:39.921Z,59.90
2023-02-16T16:45:45.527Z,60.40
2023-02-16T16:48:32.368Z,58.10
2023-02-16T16:51:22.273Z,60.70
2023-02-16T16:53:50.493Z,61.10
2023-02-16T16:56:21.883Z,65.00
2023-02-16T16:58:54.312Z,66.40
2023-02-16T17:01:24.099Z,65.80
2023-02-16T17:03:52.336Z,70.50
2023-02-16T17:06:22.367Z,72.70
2023-02-16T17:08:50.658Z,80.40
2023-02-16T17:11:33.709Z,78.40
2023-02-16T17:14:11.287Z,91.70
2023-02-16T17:16:45.639Z,76.80
2023-02-16T17:19:16.486Z,72.10
2023-02-16T17:21:46.500Z,71.50
2023-02-16T17:24:17.837Z,74.30
2023-02-16T17:26:46.367Z,69.50
2023-02-16T17:29:16.191Z,72.40
2023-02-16T17:31:48.839Z,68.80
2023-02-16T17:34:18.658Z,73.00
2023-02-16T17:36:47.032Z,70.20
2023-02-16T17:39:17.289Z,65.80
2023-02-16T17:41:46.214Z,82.60
2023-02-16T17:44:14.768Z,67.10
2023-02-16T17:46:46.558Z,66.10
2023-02-16T17:49:15.733Z,63.10
2023-02-16T17:51:44.254Z,61.90
2023-02-16T17:54:12.752Z,65.50
2023-02-16T17:56:42.347Z,80.30
2023-02-16T17:59:17.214Z,81.50
2023-02-16T18:01:45.713Z,85.60
2023-02-16T18:04:14.489Z,76.20
2023-02-16T18:06:43.210Z,71.00
2023-02-16T18:09:20.853Z,65.90
2023-02-16T18:11:52.157Z,70.20
2023-02-16T18:14:20.548Z,63.30
2023-02-16T18:16:52.421Z,60.60
2023-02-16T18:19:20.753Z,68.70
2023-02-16T18:21:49.422Z,69.10
2023-02-16T18:24:18.391Z,62.10
2023-02-16T18:26:50.320Z,62.30
2023-02-16T18:29:19.170Z,61.70
2023-02-16T18:31:47.888Z,64.10
2023-02-16T18:34:16.401Z,66.90
2023-02-16T18:36:44.498Z,75.90
2023-02-16T18:39:12.787Z,73.80
2023-02-16T18:41:41.443Z,67.20
2023-02-16T18:44:09.686Z,63.80
2023-02-16T18:46:37.934Z,59.90
2023-02-16T18:51:49.821Z,60.60
2023-02-16T18:54:18.236Z,57.80
2023-02-16T18:56:48.003Z,56.40
2023-02-16T18:59:18.274Z,60.10
2023-02-16T19:01:55.446Z,60.80
2023-02-16T19:04:24.921Z,57.20
2023-02-16T19:06:53.551Z,57.70
2023-02-16T19:09:22.131Z,61.70
2023-02-16T19:11:50.977Z,62.60
2023-02-16T19:14:19.602Z,68.20
2023-02-16T19:16:48.249Z,65.50
2023-02-16T19:19:16.382Z,61.50
2023-02-16T19:21:45.490Z,65.30
2023-02-16T19:24:14.075Z,65.60
2023-02-16T19:26:43.074Z,65.10
2023-02-16T19:29:13.176Z,62.90
2023-02-16T19:31:41.588Z,66.70
2023-02-16T19:34:10.277Z,76.90
2023-02-16T19:36:38.842Z,76.10
2023-02-16T19:39:13.214Z,72.70
2023-02-16T19:41:44.285Z,72.70
2023-02-16T19:44:14.497Z,75.80
2023-02-16T19:46:44.533Z,69.80
2023-02-16T19:49:16.020Z,68.90
2023-02-16T19:51:46.864Z,77.70
2023-02-16T19:54:15.667Z,74.70
2023-02-16T19:56:44.235Z,67.20
2023-02-16T19:59:12.779Z,69.80
2023-02-16T20:01:46.289Z,69.10
2023-02-16T20:04:14.968Z,63.30
2023-02-16T20:06:44.154Z,61.70
2023-02-16T20:09:17.828Z,60.40
2023-02-16T20:11:46.663Z,63.80
2023-02-16T20:14:15.636Z,65.70
2023-02-16T20:16:44.313Z,73.00
2023-02-16T20:19:13.566Z,78.00
2023-02-16T20:21:44.420Z,78.10
2023-02-16T20:24:14.203Z,75.90
2023-02-16T20:26:45.315Z,65.20
2023-02-16T20:29:17.973Z,76.30
2023-02-16T20:31:53.063Z,70.30
2023-02-16T20:34:26.288Z,64.40
2023-02-16T20:36:55.063Z,65.30
2023-02-16T20:39:23.983Z,67.70
2023-02-16T20:41:53.171Z,72.10
2023-02-16T20:44:24.425Z,62.60
2023-02-16T20:46:52.936Z,60.70
2023-02-16T20:49:22.428Z,58.90
2023-02-16T20:51:50.954Z,63.70
2023-02-16T20:54:19.875Z,60.60
2023-02-16T20:56:51.033Z,60.60
2023-02-16T20:59:19.147Z,61.10
2023-02-16T21:01:52.335Z,63.70
2023-02-16T21:04:21.668Z,63.90
2023-02-16T21:06:50.827Z,62.20
2023-02-16T21:09:22.533Z,63.20
2023-02-16T21:11:50.934Z,62.40
2023-02-16T21:14:19.591Z,69.20
2023-02-16T21:16:48.081Z,70.60
2023-02-16T21:19:22.849Z,96.60
2023-02-16T21:21:56.562Z,118.40
2023-02-16T21:24:25.400Z,87.30
2023-02-16T21:26:53.586Z,100.50
2023-02-16T21:29:22.277Z,82.70
2023-02-16T21:31:52.632Z,86.80
2023-02-16T21:34:30.528Z,86.70
2023-02-16T21:36:59.897Z,81.70
2023-02-16T21:39:48.526Z,70.60
2023-02-16T21:42:17.406Z,70.80
2023-02-16T21:44:50.391Z,63.30
2023-02-16T21:47:37.986Z,67.00
2023-02-16T21:50:07.367Z,60.90
2023-02-16T21:52:35.962Z,66.20
2023-02-16T21:55:23.284Z,61.60
2023-02-16T21:57:53.526Z,66.40
2023-02-16T22:00:22.328Z,64.50
2023-02-16T22:02:50.981Z,59.80
2023-02-16T22:05:19.957Z,58.70
2023-02-16T22:07:49.030Z,63.30
2023-02-16T22:10:17.923Z,64.90
2023-02-16T22:12:46.456Z,66.20
2023-02-16T22:15:15.766Z,69.90
2023-02-16T22:17:44.539Z,67.30
2023-02-16T22:20:13.207Z,68.30
2023-02-16T22:22:41.671Z,64.90
2023-02-16T22:25:10.901Z,63.50
2023-02-16T22:27:40.349Z,57.60
2023-02-16T22:30:14.696Z,54.10
2023-02-16T22:32:43.259Z,59.10
2023-02-16T22:35:11.523Z,59.60
2023-02-16T22:37:39.770Z,60.10
2023-02-16T22:40:08.393Z,57.00
2023-02-16T22:42:36.743Z,57.20
2023-02-16T22:45:06.071Z,55.60
2023-02-16T22:47:34.447Z,53.80
2023-02-16T22:50:02.857Z,60.80
2023-02-16T22:52:31.796Z,57.70
2023-02-16T22:55:00.179Z,53.20
2023-02-16T22:57:28.486Z,57.20
2023-02-16T22:59:56.955Z,58.80
2023-02-16T23:02:25.383Z,56.80
2023-02-16T23:04:56.664Z,58.20
2023-02-16T23:07:25.270Z,56.10
2023-02-16T23:09:56.240Z,53.30
2023-02-16T23:12:24.967Z,54.50
2023-02-16T23:14:54.083Z,54.50
2023-02-16T23:17:22.956Z,55.20
2023-02-16T23:19:51.953Z,49.70
2023-02-16T23:22:22.941Z,52.50
2023-02-16T23:25:11.507Z,55.60
2023-02-16T23:27:39.933Z,51.80
2023-02-16T23:30:10.985Z,49.40
2023-02-16T23:32:40.615Z,50.30
2023-02-16T23:35:09.301Z,51.70
2023-02-16T23:37:37.766Z,52.30
2023-02-16T23:40:07.461Z,50.00
2023-02-16T23:42:36.104Z,49.80
2023-02-16T23:45:05.101Z,48.50
2023-02-16T23:47:33.549Z,47.00
2023-02-16T23:50:04.673Z,46.00
2023-02-16T23:52:33.077Z,49.50
2023-02-16T23:55:01.670Z,46.60
2023-02-16T23:57:30.008Z,46.70
2023-02-16T23:59:59.400Z,46.40
